createdAt,value
2022-09-28T00:00:06.550Z,12.4
2022-09-28T00:02:08.602Z,13
2022-09-28T00:04:10.524Z,12.7
2022-09-28T00:06:39.408Z,14.2
2022-09-28T00:08:41.388Z,15
2022-09-28T00:10:43.605Z,12.2
2022-09-28T00:12:48.616Z,14
2022-09-28T00:14:50.591Z,13.4
2022-09-28T00:18:54.589Z,10.9
2022-09-28T00:20:56.560Z,11.8
2022-09-28T00:22:58.580Z,14.4
2022-09-28T00:25:00.564Z,12.8
2022-09-28T00:27:05.776Z,13
2022-09-28T00:29:07.765Z,11.7
2022-09-28T00:31:09.777Z,11.2
2022-09-28T00:33:11.763Z,13.5
2022-09-28T00:35:13.787Z,13.3
2022-09-28T00:37:15.763Z,12.9
2022-09-28T00:39:17.950Z,13.8
2022-09-28T00:41:22.981Z,14.9
2022-09-28T00:43:24.964Z,12.5
2022-09-28T00:45:27.036Z,14.7
2022-09-28T00:47:28.942Z,13.6
2022-09-28T00:49:30.963Z,12
2022-09-28T00:55:40.131Z,15.4
2022-09-28T00:57:42.121Z,13.2
2022-09-28T01:00:46.776Z,13.5
2022-09-28T01:02:48.691Z,12.9
2022-09-28T01:04:50.678Z,13.8
2022-09-28T01:06:52.692Z,12.8
2022-09-28T01:08:57.903Z,13.3
2022-09-28T01:10:59.883Z,11.5
2022-09-28T01:13:01.867Z,13.9
2022-09-28T01:15:03.859Z,12.8
2022-09-28T01:17:05.845Z,14
2022-09-28T01:19:07.833Z,12.7
2022-09-28T01:21:09.810Z,13.9
2022-09-28T01:23:15.043Z,12.5
2022-09-28T01:25:17.008Z,12.2
2022-09-28T01:27:19.031Z,11.6
2022-09-28T01:29:21.021Z,12.7
2022-09-28T01:31:23.079Z,12.3
2022-09-28T01:33:24.978Z,13.7
2022-09-28T01:35:26.966Z,12.8
2022-09-28T01:37:33.731Z,12.1
2022-09-28T01:39:35.785Z,12.1
2022-09-28T01:41:37.664Z,13.9
2022-09-28T01:43:39.666Z,11.8
2022-09-28T01:45:41.745Z,12.6
2022-09-28T01:47:43.646Z,15.1
2022-09-28T01:49:45.634Z,12.7
2022-09-28T01:51:50.828Z,13.2
2022-09-28T01:53:46.969Z,11.7
2022-09-28T01:55:48.994Z,11.9
2022-09-28T02:00:55.560Z,10.4
2022-09-28T02:05:02.750Z,11.1
2022-09-28T02:07:04.714Z,10.7
2022-09-28T02:09:06.708Z,11.4
2022-09-28T02:11:08.707Z,12.8
2022-09-28T02:13:10.669Z,12.3
2022-09-28T02:15:12.653Z,10.7
2022-09-28T02:17:14.643Z,10.6
2022-09-28T02:19:19.840Z,11.7
2022-09-28T02:21:21.837Z,10.6
2022-09-28T02:23:23.831Z,10.1
2022-09-28T02:25:25.817Z,9.9
2022-09-28T02:27:27.779Z,12.2
2022-09-28T02:29:29.760Z,10.4
2022-09-28T02:31:31.810Z,9
2022-09-28T02:33:36.946Z,11.4
2022-09-28T02:35:38.927Z,9.3
2022-09-28T02:37:40.934Z,9.7
2022-09-28T02:39:42.924Z,9
2022-09-28T02:41:44.917Z,9.9
2022-09-28T02:43:46.884Z,8.9
2022-09-28T02:45:49.025Z,8.6
2022-09-28T02:47:54.094Z,9.1
2022-09-28T02:49:56.078Z,8.5
2022-09-28T02:51:58.057Z,9
2022-09-28T02:53:00.656Z,7.5
2022-09-28T02:55:02.629Z,8.6
2022-09-28T02:57:04.632Z,9.2
2022-09-28T02:59:06.599Z,7.1
2022-09-28T03:01:11.894Z,8.6
2022-09-28T03:03:13.795Z,8.5
2022-09-28T03:05:15.793Z,6.8
2022-09-28T03:07:17.771Z,7.3
2022-09-28T03:11:21.752Z,5.9
2022-09-28T03:13:23.765Z,6.8
2022-09-28T03:15:28.986Z,7.1
2022-09-28T03:19:32.982Z,7.7
2022-09-28T03:23:36.985Z,7.6
2022-09-28T03:25:38.979Z,6.7
2022-09-28T03:27:40.975Z,7.7
2022-09-28T03:29:46.158Z,9.2
2022-09-28T03:31:48.202Z,7.7
2022-09-28T03:33:50.130Z,8.1
2022-09-28T03:35:52.283Z,7.1
2022-09-28T03:37:54.104Z,8.2
2022-09-28T03:39:56.081Z,7.8
2022-09-28T03:41:58.096Z,8.4
2022-09-28T03:44:03.294Z,9
2022-09-28T03:46:05.329Z,9.2
2022-09-28T03:48:07.268Z,8.3
2022-09-28T03:50:36.116Z,9.7
2022-09-28T03:52:38.106Z,9.5
2022-09-28T03:54:40.103Z,9.4
2022-09-28T03:56:45.311Z,8.6
2022-09-28T03:58:47.313Z,7.4
2022-09-28T04:00:49.352Z,8.2
2022-09-28T04:02:51.265Z,8.9
2022-09-28T04:04:53.289Z,8.9
2022-09-28T04:06:55.261Z,8.2
2022-09-28T04:08:57.254Z,8.9
2022-09-28T04:11:02.481Z,8.9
2022-09-28T04:13:04.465Z,8.5
2022-09-28T04:15:06.454Z,9
2022-09-28T04:17:08.424Z,7.6
2022-09-28T04:21:12.414Z,8.8
2022-09-28T04:23:14.403Z,6.5
2022-09-28T04:25:19.603Z,8.8
2022-09-28T04:27:21.591Z,8.4
2022-09-28T04:29:23.577Z,7.9
2022-09-28T04:31:25.611Z,8.4
2022-09-28T04:33:27.581Z,7.3
2022-09-28T04:35:29.548Z,8
2022-09-28T04:37:31.543Z,6.5
2022-09-28T04:39:36.735Z,8.2
2022-09-28T04:41:38.759Z,8
2022-09-28T04:43:40.734Z,7.8
2022-09-28T04:44:43.326Z,8.1
2022-09-28T04:46:45.307Z,8.4
2022-09-28T04:48:47.301Z,6.6
2022-09-28T04:52:54.698Z,7.9
2022-09-28T04:54:56.681Z,8.1
2022-09-28T04:56:58.659Z,6.7
2022-09-28T04:59:00.638Z,8.1
2022-09-28T05:01:02.720Z,8.1
2022-09-28T05:03:04.631Z,6.8
2022-09-28T05:05:06.637Z,7.8
2022-09-28T05:07:11.862Z,8.6
2022-09-28T05:09:13.915Z,6.1
2022-09-28T05:11:15.839Z,6.6
2022-09-28T05:13:17.803Z,6.3
2022-09-28T05:15:19.828Z,7.6
2022-09-28T05:17:21.815Z,7.5
2022-09-28T05:19:23.829Z,7.9
2022-09-28T05:21:29.027Z,8.5
2022-09-28T05:23:31.009Z,7.1
2022-09-28T05:25:32.997Z,7.2
2022-09-28T05:27:34.970Z,8.7
2022-09-28T05:29:36.965Z,7.3
2022-09-28T05:35:49.783Z,8.8
2022-09-28T05:37:48.162Z,7
2022-09-28T05:40:52.751Z,8.6
2022-09-28T05:42:54.730Z,7.8
2022-09-28T05:44:56.703Z,8.1
2022-09-28T05:46:58.717Z,6.7
2022-09-28T05:49:03.904Z,7.7
2022-09-28T05:51:05.902Z,8.3
2022-09-28T05:53:07.897Z,7.6
2022-09-28T05:55:09.857Z,8.9
2022-09-28T05:57:11.834Z,8
2022-09-28T05:59:13.846Z,7.4
2022-09-28T06:01:15.836Z,8.5
2022-09-28T06:03:21.023Z,9
2022-09-28T06:05:23.015Z,10
2022-09-28T06:07:24.977Z,8.5
2022-09-28T06:11:28.957Z,9.3
2022-09-28T06:13:30.941Z,7.3
2022-09-28T06:15:32.902Z,8.2
2022-09-28T06:17:38.127Z,10.7
2022-09-28T06:19:40.115Z,9.3
2022-09-28T06:21:42.086Z,7.9
2022-09-28T06:23:48.858Z,8.3
2022-09-28T06:25:47.089Z,8.2
2022-09-28T06:27:48.005Z,8.3
2022-09-28T06:29:49.988Z,8
2022-09-28T06:31:55.176Z,8
2022-09-28T06:33:57.183Z,7.1
2022-09-28T06:35:59.174Z,7.8
2022-09-28T06:37:01.750Z,9.1
2022-09-28T06:39:03.706Z,8.8
2022-09-28T06:41:05.796Z,6.7
2022-09-28T06:43:07.718Z,7.6
2022-09-28T06:45:12.902Z,7.4
2022-09-28T06:47:14.885Z,8
2022-09-28T06:49:19.431Z,7.1
2022-09-28T06:51:18.838Z,7.6
2022-09-28T06:53:20.819Z,9.4
2022-09-28T06:55:22.811Z,7.8
2022-09-28T06:57:24.761Z,8.1
2022-09-28T06:59:29.977Z,7.2
2022-09-28T07:01:32.025Z,6.9
2022-09-28T07:03:33.968Z,7.1
2022-09-28T07:11:41.922Z,6.9
2022-09-28T07:13:50.390Z,7.5
2022-09-28T07:15:49.093Z,6.2
2022-09-28T07:18:00.375Z,7.1
2022-09-28T07:19:53.037Z,8
2022-09-28T07:22:02.387Z,8.2
2022-09-28T07:23:57.004Z,6.8
2022-09-28T07:25:58.978Z,6.8
2022-09-28T07:28:04.205Z,8.5
2022-09-28T07:30:07.740Z,7.6
2022-09-28T07:32:09.681Z,7.8
2022-09-28T07:34:38.532Z,8.4
2022-09-28T07:38:42.492Z,7.4
2022-09-28T07:40:48.486Z,6.7
2022-09-28T07:42:49.722Z,6.6
2022-09-28T07:44:51.721Z,6
2022-09-28T07:46:53.714Z,7.2
2022-09-28T07:48:55.705Z,6.3
2022-09-28T07:50:57.697Z,6.5
2022-09-28T07:52:59.672Z,5.3
2022-09-28T07:55:07.094Z,6.1
2022-09-28T07:57:06.896Z,6
2022-09-28T07:59:08.886Z,6.5
2022-09-28T08:01:10.957Z,6.8
2022-09-28T08:03:12.870Z,5.4
2022-09-28T08:05:14.875Z,5.1
2022-09-28T08:07:20.418Z,4.8
2022-09-28T08:09:22.074Z,4.8
2022-09-28T08:11:24.090Z,4
2022-09-28T08:13:27.070Z,3.8
2022-09-28T08:15:28.091Z,4.1
2022-09-28T08:17:30.131Z,3.9
2022-09-28T08:19:32.108Z,3.2
2022-09-28T08:21:34.128Z,2.5
2022-09-28T08:23:39.353Z,3.3
2022-09-28T08:25:41.339Z,3.6
2022-09-28T08:27:43.344Z,10.9
2022-09-28T08:28:45.955Z,3.3
2022-09-28T08:30:47.964Z,3
2022-09-28T08:32:49.972Z,3.9
2022-09-28T08:34:51.993Z,2.8
2022-09-28T08:36:57.225Z,2.5
2022-09-28T08:38:59.205Z,2.7
2022-09-28T08:41:01.299Z,3.4
2022-09-28T08:43:03.263Z,2.9
2022-09-28T08:45:05.258Z,2.9
2022-09-28T08:47:07.265Z,2.3
2022-09-28T08:49:25.052Z,2.7
2022-09-28T08:51:14.500Z,2.7
2022-09-28T08:53:16.503Z,1.9
2022-09-28T08:55:18.525Z,2.7
2022-09-28T08:57:20.540Z,2.5
2022-09-28T08:59:22.547Z,2
2022-09-28T09:01:24.618Z,2.2
2022-09-28T09:03:26.544Z,2.4
2022-09-28T09:05:31.806Z,2.1
2022-09-28T09:07:33.826Z,1.9
2022-09-28T09:09:35.826Z,2.2
2022-09-28T09:11:37.736Z,1.7
2022-09-28T09:13:39.752Z,1.2
2022-09-28T09:15:41.758Z,1.9
2022-09-28T09:19:48.854Z,1.3
2022-09-28T09:21:50.753Z,2.1
2022-09-28T09:23:52.716Z,1.7
2022-09-28T09:24:55.284Z,1.5
2022-09-28T09:26:57.202Z,1.4
2022-09-28T09:28:59.259Z,2.4
2022-09-28T09:33:06.220Z,1.5
2022-09-28T09:39:11.963Z,1.1
2022-09-28T09:43:15.799Z,0.8
2022-09-28T09:45:17.706Z,1.1
2022-09-28T09:47:22.751Z,0.7
2022-09-28T09:49:24.678Z,0.9
2022-09-28T09:51:26.587Z,0.7
2022-09-28T09:53:28.503Z,1.1
2022-09-28T09:55:30.487Z,0.9
2022-09-28T09:57:32.345Z,1
2022-09-28T09:59:34.245Z,1.1
2022-09-28T10:03:41.224Z,0.6
2022-09-28T10:05:43.133Z,0.7
2022-09-28T10:07:45.048Z,0.8
2022-09-28T10:09:46.954Z,0.9
2022-09-28T10:11:48.870Z,0.3
2022-09-28T10:13:50.765Z,0.5
2022-09-28T10:15:55.828Z,2.2
2022-09-28T10:17:57.733Z,0.6
2022-09-28T10:19:59.651Z,0.3
2022-09-28T10:21:02.151Z,0.8
2022-09-28T10:23:04.091Z,0.6
2022-09-28T10:25:06.000Z,0.5
2022-09-28T10:27:07.911Z,0.1
2022-09-28T10:29:12.963Z,0.8
2022-09-28T10:33:16.750Z,1.7
2022-09-28T10:39:22.497Z,0.7
2022-09-28T10:41:24.391Z,0.5
2022-09-28T10:43:29.458Z,0.5
2022-09-28T10:45:31.316Z,0.2
2022-09-28T10:47:33.235Z,0.5
2022-09-28T10:49:35.135Z,0.3
2022-09-28T10:51:37.061Z,0.8
2022-09-28T10:53:38.962Z,0.1
2022-09-28T10:55:40.841Z,0.5
2022-09-28T10:57:45.906Z,0.3
2022-09-28T10:59:47.820Z,0.4
2022-09-28T11:03:51.637Z,0.3
2022-09-28T11:05:53.512Z,0.3
2022-09-28T11:07:55.414Z,0.5
2022-09-28T11:09:57.322Z,0.1
2022-09-28T11:12:02.380Z,0.3
2022-09-28T11:14:04.282Z,0.5
2022-09-28T11:16:06.198Z,0.3
2022-09-28T11:18:34.777Z,0.2
2022-09-28T11:20:36.680Z,0.4
2022-09-28T11:22:38.579Z,0.2
2022-09-28T11:24:43.622Z,1
2022-09-28T11:26:45.557Z,1
2022-09-28T11:28:47.444Z,0.6
2022-09-28T11:30:49.367Z,0.7
2022-09-28T11:32:51.232Z,0.7
2022-09-28T11:36:58.432Z,0.3
2022-09-28T11:39:00.101Z,0.3
2022-09-28T11:45:05.816Z,0.7
2022-09-28T11:47:07.721Z,0.5
2022-09-28T11:51:11.501Z,0.3
2022-09-28T11:53:16.581Z,0.6
2022-09-28T11:55:18.494Z,0.4
2022-09-28T11:57:20.395Z,0.3
2022-09-28T12:01:24.160Z,0.4
2022-09-28T12:03:26.228Z,0.4
2022-09-28T12:05:27.950Z,0.5
2022-09-28T12:07:32.979Z,0.3
2022-09-28T12:11:36.765Z,0.6
2022-09-28T12:12:39.283Z,0.2
2022-09-28T12:14:41.183Z,0.2
2022-09-28T12:17:04.678Z,0.5
2022-09-28T12:18:44.956Z,0.4
2022-09-28T12:20:50.016Z,0.5
2022-09-28T12:22:51.894Z,0.7
2022-09-28T12:24:53.819Z,0.9
2022-09-28T12:26:55.688Z,0.4
2022-09-28T12:28:57.573Z,0.5
2022-09-28T12:30:59.504Z,0.3
2022-09-28T12:35:06.404Z,0.6
2022-09-28T12:37:08.286Z,0.3
2022-09-28T12:45:15.882Z,0.3
2022-09-28T12:47:17.780Z,0.5
2022-09-28T12:53:26.604Z,1
2022-09-28T12:55:28.494Z,0.6
2022-09-28T12:57:30.411Z,0.4
2022-09-28T12:59:32.313Z,0.4
2022-09-28T13:01:34.235Z,0
2022-09-28T13:03:39.251Z,0.4
2022-09-28T13:05:41.171Z,0.1
2022-09-28T13:07:43.069Z,0.3
2022-09-28T13:08:45.569Z,0.3
2022-09-28T13:10:47.476Z,0.8
2022-09-28T13:12:49.396Z,0.1
2022-09-28T13:17:00.515Z,0.3
2022-09-28T13:18:58.201Z,0
2022-09-28T13:21:01.662Z,0.1
2022-09-28T13:23:03.488Z,0.3
2022-09-28T13:25:05.404Z,0.3
2022-09-28T13:27:07.276Z,0.6
2022-09-28T13:33:16.075Z,0.3
2022-09-28T13:35:17.943Z,0.3
2022-09-28T13:43:25.474Z,0.2
2022-09-28T13:45:30.478Z,0.7
2022-09-28T13:51:36.135Z,0.4
2022-09-28T13:59:46.843Z,0.2
2022-09-28T14:01:48.845Z,0.6
2022-09-28T14:04:53.163Z,0.2
2022-09-28T14:06:55.789Z,0.2
2022-09-28T14:08:56.911Z,1.5
2022-09-28T14:10:58.802Z,0.6
2022-09-28T14:13:06.557Z,0.4
2022-09-28T14:15:05.730Z,0.7
2022-09-28T14:17:07.634Z,0.8
2022-09-28T14:21:11.414Z,0.7
2022-09-28T14:23:13.300Z,0.6
2022-09-28T14:25:15.186Z,0.5
2022-09-28T14:27:20.218Z,0.8
2022-09-28T14:29:22.437Z,0.5
2022-09-28T14:31:24.093Z,0.7
2022-09-28T14:33:25.863Z,0.9
2022-09-28T14:35:27.740Z,0.3
2022-09-28T14:37:29.627Z,0.6
2022-09-28T14:41:36.524Z,0.5
2022-09-28T14:43:38.394Z,0.5
2022-09-28T14:45:40.264Z,0.8
2022-09-28T14:51:45.891Z,0.9
2022-09-28T14:53:47.769Z,1.5
2022-09-28T14:55:52.798Z,0.5
2022-09-28T14:57:54.706Z,1.1
2022-09-28T14:59:56.600Z,0.8
2022-09-28T15:02:25.119Z,0.7
2022-09-28T15:04:27.099Z,1.1
2022-09-28T15:06:28.890Z,0.9
2022-09-28T15:08:33.948Z,0.8
2022-09-28T15:10:35.837Z,0.8
2022-09-28T15:12:37.736Z,1
2022-09-28T15:14:39.623Z,0.4
2022-09-28T15:16:41.504Z,0.5
2022-09-28T15:18:43.389Z,0.5
2022-09-28T15:20:45.305Z,0.3
2022-09-28T15:22:50.354Z,12.7
2022-09-28T15:24:52.249Z,0.9
2022-09-28T15:26:54.133Z,0.8
2022-09-28T15:28:56.030Z,0.8
2022-09-28T15:30:57.937Z,0.9
2022-09-28T15:32:59.835Z,0.8
2022-09-28T15:35:01.753Z,0.8
2022-09-28T15:37:06.777Z,0.7
2022-09-28T15:39:08.670Z,0.4
2022-09-28T15:41:10.619Z,1
2022-09-28T15:43:12.514Z,0.7
2022-09-28T15:45:14.393Z,0.7
2022-09-28T15:47:16.287Z,0.4
2022-09-28T15:51:23.253Z,1.1
2022-09-28T15:56:29.583Z,0.7
2022-09-28T15:58:31.465Z,0.9
2022-09-28T16:00:33.384Z,0.5
2022-09-28T16:02:35.379Z,1.1
2022-09-28T16:04:40.345Z,1.1
2022-09-28T16:08:44.150Z,1.3
2022-09-28T16:14:49.882Z,2.3
2022-09-28T16:16:51.808Z,1.1
2022-09-28T16:18:56.837Z,1.5
2022-09-28T16:20:58.777Z,1.2
2022-09-28T16:23:00.684Z,1.1
2022-09-28T16:25:02.604Z,1.2
2022-09-28T16:27:04.510Z,1.3
2022-09-28T16:29:06.415Z,0.5
2022-09-28T16:31:08.406Z,0.9
2022-09-28T16:33:13.362Z,1
2022-09-28T16:35:15.304Z,0.9
2022-09-28T16:37:17.185Z,1.2
2022-09-28T16:39:19.288Z,1.2
2022-09-28T16:41:21.030Z,1.3
2022-09-28T16:43:22.934Z,1.8
2022-09-28T16:45:24.871Z,0.7
2022-09-28T16:47:29.947Z,0.9
2022-09-28T16:49:31.837Z,1
2022-09-28T16:51:33.777Z,0.9
2022-09-28T16:52:36.302Z,1.6
2022-09-28T16:54:38.203Z,0.9
2022-09-28T16:56:40.130Z,1.1
2022-09-28T16:58:42.057Z,1
2022-09-28T17:00:47.127Z,1.2
2022-09-28T17:02:49.039Z,1.3
2022-09-28T17:04:50.953Z,1.1
2022-09-28T17:06:52.879Z,1
2022-09-28T17:08:54.764Z,0.7
2022-09-28T17:15:03.680Z,1.3
2022-09-28T17:17:09.815Z,1.2
2022-09-28T17:23:11.487Z,1.5
2022-09-28T17:25:13.417Z,1.5
2022-09-28T17:29:20.362Z,1.3
2022-09-28T17:31:22.391Z,1
2022-09-28T17:33:24.321Z,1.2
2022-09-28T17:35:26.214Z,1.7
2022-09-28T17:37:28.134Z,1.6
2022-09-28T17:39:30.171Z,3.9
2022-09-28T17:41:32.084Z,9
2022-09-28T17:43:37.147Z,6.3
2022-09-28T17:45:39.177Z,2.6
2022-09-28T17:47:41.103Z,1.4
2022-09-28T17:48:43.768Z,3.3
2022-09-28T17:50:46.397Z,6.4
2022-09-28T17:52:47.571Z,4.3
2022-09-28T17:54:49.494Z,2.3
2022-09-28T17:56:54.531Z,2.1
2022-09-28T17:58:56.478Z,2.2
2022-09-28T18:00:58.485Z,1.5
2022-09-28T18:03:00.475Z,1.8
2022-09-28T18:05:02.325Z,1.6
2022-09-28T18:07:04.234Z,1.5
2022-09-28T18:09:06.151Z,2.3
2022-09-28T18:11:11.303Z,2.4
2022-09-28T18:13:13.248Z,4.8
2022-09-28T18:29:33.500Z,2.8
2022-09-28T18:31:33.916Z,3.8
2022-09-28T18:37:39.724Z,3.4
2022-09-28T18:39:44.879Z,3
2022-09-28T18:41:46.785Z,3.4
2022-09-28T18:43:48.709Z,3.3
2022-09-28T18:54:28.579Z,2.8
2022-09-28T18:56:30.533Z,2.7
2022-09-28T18:58:32.549Z,2.1
2022-09-28T19:00:34.443Z,2.9
2022-09-28T19:08:45.664Z,1.6
2022-09-28T19:10:47.685Z,1.9
2022-09-28T19:12:51.258Z,1.8
2022-09-28T19:14:53.222Z,2.4
2022-09-28T19:16:55.265Z,1.7
2022-09-28T19:18:57.283Z,2.5
2022-09-28T19:21:02.532Z,2
2022-09-28T19:23:04.557Z,1.8
2022-09-28T19:25:06.591Z,1.8
2022-09-28T19:27:08.583Z,2.9
2022-09-28T19:29:10.600Z,2.4
2022-09-28T19:31:12.615Z,1.7
2022-09-28T19:33:14.665Z,1.3
2022-09-28T19:35:19.909Z,1.3
2022-09-28T19:37:21.899Z,2
2022-09-28T19:39:23.920Z,2
2022-09-28T19:40:26.650Z,2
2022-09-28T19:44:30.553Z,1.7
2022-09-28T19:46:32.596Z,1.6
2022-09-28T19:48:37.832Z,1.6
2022-09-28T19:50:39.828Z,2.3
2022-09-28T19:52:41.855Z,1.8
2022-09-28T19:54:43.980Z,2.9
2022-09-28T19:56:45.860Z,3.6
2022-09-28T19:58:47.879Z,3.1
2022-09-28T20:00:49.881Z,3.4
2022-09-28T20:02:55.159Z,2.5
2022-09-28T20:04:57.166Z,3.7
2022-09-28T20:06:59.067Z,4.7
2022-09-28T20:11:03.069Z,4.4
2022-09-28T20:13:05.084Z,4.8
2022-09-28T20:15:07.049Z,4.5
2022-09-28T20:17:12.306Z,3.1
2022-09-28T20:19:14.385Z,3.4
2022-09-28T20:21:18.217Z,3.6
2022-09-28T20:23:18.355Z,3.7
2022-09-28T20:25:20.349Z,3.3
2022-09-28T20:27:26.143Z,2.7
2022-09-28T20:29:24.429Z,3.1
2022-09-28T20:31:29.683Z,2.8
2022-09-28T20:35:33.610Z,3.9
2022-09-28T20:36:36.226Z,2.4
2022-09-28T20:38:38.238Z,2.3
2022-09-28T20:40:40.305Z,3
2022-09-28T20:42:42.243Z,2.4
2022-09-28T20:44:47.468Z,2.4
2022-09-28T20:52:55.490Z,2.9
2022-09-28T20:54:57.504Z,4.1
2022-09-28T20:59:04.726Z,3.2
2022-09-28T21:03:08.821Z,3.1
2022-09-28T21:05:10.723Z,3.2
2022-09-28T21:09:14.770Z,3.4
2022-09-28T21:11:16.772Z,3.8
2022-09-28T21:17:26.036Z,3.7
2022-09-28T21:19:28.034Z,4
2022-09-28T21:27:39.259Z,3.9
2022-09-28T21:29:41.273Z,4
2022-09-28T21:31:43.334Z,3.6
2022-09-28T21:32:45.901Z,4
2022-09-28T21:34:47.883Z,4.5
2022-09-28T21:36:49.866Z,3.9
2022-09-28T21:38:51.899Z,4
2022-09-28T21:40:57.211Z,4.3
2022-09-28T21:42:59.145Z,4.7
2022-09-28T21:45:01.151Z,4.3
2022-09-28T21:47:03.141Z,4.4
2022-09-28T21:49:05.152Z,3.7
2022-09-28T21:51:07.134Z,4.8
2022-09-28T21:53:09.178Z,4.1
2022-09-28T21:55:14.389Z,4.8
2022-09-28T21:57:16.372Z,4.1
2022-09-28T21:59:18.414Z,4
2022-09-28T22:01:20.481Z,4.5
2022-09-28T22:03:22.424Z,4.9
2022-09-28T22:05:24.415Z,4.9
2022-09-28T22:07:26.426Z,4
2022-09-28T22:11:33.684Z,4.8
2022-09-28T22:13:36.605Z,5.7
2022-09-28T22:15:38.604Z,4.8
2022-09-28T22:17:40.595Z,5.4
2022-09-28T22:19:42.576Z,4.9
2022-09-28T22:23:49.797Z,5
2022-09-28T22:25:51.818Z,4.4
2022-09-28T22:27:53.830Z,4.5
2022-09-28T22:30:22.673Z,5.9
2022-09-28T22:32:24.701Z,5
2022-09-28T22:34:26.672Z,5.7
2022-09-28T22:36:32.020Z,5.5
2022-09-28T22:38:33.886Z,6.4
2022-09-28T22:40:35.971Z,4.9
2022-09-28T22:42:37.874Z,5.4
2022-09-28T22:44:39.873Z,4.6
2022-09-28T22:46:41.931Z,4.2
2022-09-28T22:48:43.862Z,5.2
2022-09-28T22:50:49.083Z,5
2022-09-28T22:52:51.088Z,4.4
2022-09-28T22:54:53.075Z,4.3
2022-09-28T22:56:55.054Z,5.2
2022-09-28T22:58:57.070Z,5.4
2022-09-28T23:00:59.066Z,5.9
2022-09-28T23:03:01.146Z,7.2
2022-09-28T23:05:06.304Z,5
2022-09-28T23:07:08.301Z,4.3
2022-09-28T23:09:10.296Z,5
2022-09-28T23:11:12.295Z,5.1
2022-09-28T23:13:14.263Z,6.3
2022-09-28T23:15:16.269Z,4.4
2022-09-28T23:17:18.292Z,4.9
2022-09-28T23:19:23.535Z,5
2022-09-28T23:21:25.518Z,5.1
2022-09-28T23:23:27.501Z,5.7
2022-09-28T23:26:32.146Z,4.4
2022-09-28T23:28:34.125Z,5.2
2022-09-28T23:32:41.377Z,6
2022-09-28T23:36:45.389Z,5.8
2022-09-28T23:38:47.392Z,4.6
2022-09-28T23:40:49.442Z,5.3
2022-09-28T23:42:51.351Z,4.9
2022-09-28T23:44:53.352Z,5.5
2022-09-28T23:49:00.584Z,4.2
2022-09-28T23:51:02.583Z,5.3
2022-09-28T23:53:04.558Z,6.1
2022-09-28T23:55:06.549Z,5.4
2022-09-28T23:59:10.552Z,5.7
